sensor_id;sensor_type;location;lat;lon;timestamp;temperature;humidity
53310;DHT22;39197;53.200;5.792;2022-11-25T00:00:06;7.70;99.90
53310;DHT22;39197;53.200;5.792;2022-11-25T00:02:32;7.70;99.90
53310;DHT22;39197;53.200;5.792;2022-11-25T00:04:57;7.70;99.90
53310;DHT22;39197;53.200;5.792;2022-11-25T00:07:23;7.70;99.90
53310;DHT22;39197;53.200;5.792;2022-11-25T00:09:48;7.70;99.90
53310;DHT22;39197;53.200;5.792;2022-11-25T00:12:14;7.70;99.90
53310;DHT22;39197;53.200;5.792;2022-11-25T00:14:39;7.70;99.90
53310;DHT22;39197;53.200;5.792;2022-11-25T00:17:05;7.70;99.90
53310;DHT22;39197;53.200;5.792;2022-11-25T00:19:30;7.70;99.90
53310;DHT22;39197;53.200;5.792;2022-11-25T00:21:56;7.70;99.90
53310;DHT22;39197;53.200;5.792;2022-11-25T00:24:21;7.70;99.90
53310;DHT22;39197;53.200;5.792;2022-11-25T00:26:47;7.80;99.90
53310;DHT22;39197;53.200;5.792;2022-11-25T00:29:13;7.70;99.90
53310;DHT22;39197;53.200;5.792;2022-11-25T00:31:39;7.70;99.90
53310;DHT22;39197;53.200;5.792;2022-11-25T00:34:05;7.70;99.90
53310;DHT22;39197;53.200;5.792;2022-11-25T00:36:33;7.80;99.90
53310;DHT22;39197;53.200;5.792;2022-11-25T00:39:05;7.70;99.90
53310;DHT22;39197;53.200;5.792;2022-11-25T00:41:31;7.80;99.90
53310;DHT22;39197;53.200;5.792;2022-11-25T00:44:17;7.80;99.90
53310;DHT22;39197;53.200;5.792;2022-11-25T00:47:12;7.80;99.90
53310;DHT22;39197;53.200;5.792;2022-11-25T00:49:40;7.80;99.90
53310;DHT22;39197;53.200;5.792;2022-11-25T00:52:06;7.80;99.90
53310;DHT22;39197;53.200;5.792;2022-11-25T00:54:32;7.90;99.90
53310;DHT22;39197;53.200;5.792;2022-11-25T00:56:58;7.90;99.90
53310;DHT22;39197;53.200;5.792;2022-11-25T00:59:24;7.80;99.90
53310;DHT22;39197;53.200;5.792;2022-11-25T01:01:50;7.90;99.90
53310;DHT22;39197;53.200;5.792;2022-11-25T01:04:16;7.90;99.90
53310;DHT22;39197;53.200;5.792;2022-11-25T01:06:41;7.90;99.90
53310;DHT22;39197;53.200;5.792;2022-11-25T01:09:09;7.90;99.90
53310;DHT22;39197;53.200;5.792;2022-11-25T01:11:35;7.90;99.90
53310;DHT22;39197;53.200;5.792;2022-11-25T01:14:00;7.90;99.90
53310;DHT22;39197;53.200;5.792;2022-11-25T01:16:26;7.90;99.90
53310;DHT22;39197;53.200;5.792;2022-11-25T01:18:52;7.90;99.90
53310;DHT22;39197;53.200;5.792;2022-11-25T01:21:21;7.90;99.90
53310;DHT22;39197;53.200;5.792;2022-11-25T01:23:47;7.90;99.90
53310;DHT22;39197;53.200;5.792;2022-11-25T01:26:16;7.90;99.90
53310;DHT22;39197;53.200;5.792;2022-11-25T01:28:41;7.90;99.90
53310;DHT22;39197;53.200;5.792;2022-11-25T01:31:16;7.90;99.90
53310;DHT22;39197;53.200;5.792;2022-11-25T01:33:43;7.90;99.90
53310;DHT22;39197;53.200;5.792;2022-11-25T01:36:14;7.90;99.90
53310;DHT22;39197;53.200;5.792;2022-11-25T01:38:40;7.90;99.90
53310;DHT22;39197;53.200;5.792;2022-11-25T01:41:08;7.90;99.90
53310;DHT22;39197;53.200;5.792;2022-11-25T01:43:34;7.80;99.90
53310;DHT22;39197;53.200;5.792;2022-11-25T01:48:55;7.80;99.90
53310;DHT22;39197;53.200;5.792;2022-11-25T01:51:31;7.80;99.90
53310;DHT22;39197;53.200;5.792;2022-11-25T01:54:02;7.80;99.90
53310;DHT22;39197;53.200;5.792;2022-11-25T01:56:35;7.80;99.90
53310;DHT22;39197;53.200;5.792;2022-11-25T01:59:03;7.80;99.90
53310;DHT22;39197;53.200;5.792;2022-11-25T02:01:29;7.80;99.90
53310;DHT22;39197;53.200;5.792;2022-11-25T02:03:55;7.80;99.90
53310;DHT22;39197;53.200;5.792;2022-11-25T02:06:25;7.70;99.90
53310;DHT22;39197;53.200;5.792;2022-11-25T02:08:54;7.70;99.90
53310;DHT22;39197;53.200;5.792;2022-11-25T02:11:21;7.70;99.90
53310;DHT22;39197;53.200;5.792;2022-11-25T02:13:48;7.70;99.90
53310;DHT22;39197;53.200;5.792;2022-11-25T02:16:15;7.70;99.90
53310;DHT22;39197;53.200;5.792;2022-11-25T02:18:41;7.60;99.90
53310;DHT22;39197;53.200;5.792;2022-11-25T02:21:07;7.70;99.90
53310;DHT22;39197;53.200;5.792;2022-11-25T02:23:46;7.60;99.90
53310;DHT22;39197;53.200;5.792;2022-11-25T02:26:16;7.60;99.90
53310;DHT22;39197;53.200;5.792;2022-11-25T02:28:42;7.60;99.90
53310;DHT22;39197;53.200;5.792;2022-11-25T02:31:08;7.60;99.90
53310;DHT22;39197;53.200;5.792;2022-11-25T02:33:33;7.60;99.90
53310;DHT22;39197;53.200;5.792;2022-11-25T02:36:04;7.60;99.90
53310;DHT22;39197;53.200;5.792;2022-11-25T02:38:36;7.60;99.90
53310;DHT22;39197;53.200;5.792;2022-11-25T02:41:11;7.60;99.90
53310;DHT22;39197;53.200;5.792;2022-11-25T02:43:37;7.60;99.90
53310;DHT22;39197;53.200;5.792;2022-11-25T02:46:09;7.50;99.90
53310;DHT22;39197;53.200;5.792;2022-11-25T02:48:38;7.60;99.90
53310;DHT22;39197;53.200;5.792;2022-11-25T02:51:05;7.50;99.90
53310;DHT22;39197;53.200;5.792;2022-11-25T02:53:32;7.60;99.90
53310;DHT22;39197;53.200;5.792;2022-11-25T02:55:58;7.60;99.90
53310;DHT22;39197;53.200;5.792;2022-11-25T02:58:23;7.60;99.90
53310;DHT22;39197;53.200;5.792;2022-11-25T03:00:49;7.60;99.90
53310;DHT22;39197;53.200;5.792;2022-11-25T03:03:15;7.60;99.90
53310;DHT22;39197;53.200;5.792;2022-11-25T03:05:41;7.60;99.90
53310;DHT22;39197;53.200;5.792;2022-11-25T03:08:08;7.60;99.90
53310;DHT22;39197;53.200;5.792;2022-11-25T03:10:34;7.60;99.90
53310;DHT22;39197;53.200;5.792;2022-11-25T03:13:00;7.60;99.90
53310;DHT22;39197;53.200;5.792;2022-11-25T03:15:25;7.60;99.90
53310;DHT22;39197;53.200;5.792;2022-11-25T03:17:51;7.70;99.90
53310;DHT22;39197;53.200;5.792;2022-11-25T03:20:18;7.60;99.90
53310;DHT22;39197;53.200;5.792;2022-11-25T03:22:45;7.70;99.90
53310;DHT22;39197;53.200;5.792;2022-11-25T03:25:12;7.70;99.90
53310;DHT22;39197;53.200;5.792;2022-11-25T03:27:38;7.70;99.90
53310;DHT22;39197;53.200;5.792;2022-11-25T03:30:08;7.80;99.90
53310;DHT22;39197;53.200;5.792;2022-11-25T03:32:34;7.80;99.90
53310;DHT22;39197;53.200;5.792;2022-11-25T03:35:00;7.80;99.90
53310;DHT22;39197;53.200;5.792;2022-11-25T03:37:26;7.80;99.90
53310;DHT22;39197;53.200;5.792;2022-11-25T03:39:51;7.80;99.90
53310;DHT22;39197;53.200;5.792;2022-11-25T03:42:17;7.80;99.90
53310;DHT22;39197;53.200;5.792;2022-11-25T03:44:43;7.80;99.90
53310;DHT22;39197;53.200;5.792;2022-11-25T03:47:08;7.90;99.90
53310;DHT22;39197;53.200;5.792;2022-11-25T03:49:34;7.90;99.90
53310;DHT22;39197;53.200;5.792;2022-11-25T03:52:00;7.90;99.90
53310;DHT22;39197;53.200;5.792;2022-11-25T03:54:25;7.90;99.90
53310;DHT22;39197;53.200;5.792;2022-11-25T03:56:51;7.90;99.90
53310;DHT22;39197;53.200;5.792;2022-11-25T03:59:16;7.90;99.90
53310;DHT22;39197;53.200;5.792;2022-11-25T04:01:42;7.90;99.90
53310;DHT22;39197;53.200;5.792;2022-11-25T04:04:09;7.90;99.90
53310;DHT22;39197;53.200;5.792;2022-11-25T04:06:34;7.90;99.90
53310;DHT22;39197;53.200;5.792;2022-11-25T04:09:00;8.00;99.90
53310;DHT22;39197;53.200;5.792;2022-11-25T04:11:25;7.90;99.90
53310;DHT22;39197;53.200;5.792;2022-11-25T04:14:11;7.90;99.90
53310;DHT22;39197;53.200;5.792;2022-11-25T04:16:37;7.90;99.90
53310;DHT22;39197;53.200;5.792;2022-11-25T04:19:02;7.90;99.90
53310;DHT22;39197;53.200;5.792;2022-11-25T04:21:28;7.90;99.90
53310;DHT22;39197;53.200;5.792;2022-11-25T04:23:53;7.80;99.90
53310;DHT22;39197;53.200;5.792;2022-11-25T04:26:19;7.90;99.90
53310;DHT22;39197;53.200;5.792;2022-11-25T04:28:45;7.80;99.90
53310;DHT22;39197;53.200;5.792;2022-11-25T04:31:10;7.80;99.90
53310;DHT22;39197;53.200;5.792;2022-11-25T04:33:36;7.80;99.90
53310;DHT22;39197;53.200;5.792;2022-11-25T04:36:02;7.80;99.90
53310;DHT22;39197;53.200;5.792;2022-11-25T04:38:27;7.80;99.90
53310;DHT22;39197;53.200;5.792;2022-11-25T04:40:53;7.80;99.90
53310;DHT22;39197;53.200;5.792;2022-11-25T04:43:19;7.70;99.90
53310;DHT22;39197;53.200;5.792;2022-11-25T04:45:46;7.80;99.90
53310;DHT22;39197;53.200;5.792;2022-11-25T04:48:12;7.80;99.90
53310;DHT22;39197;53.200;5.792;2022-11-25T04:50:38;7.70;99.90
53310;DHT22;39197;53.200;5.792;2022-11-25T04:53:03;7.80;99.90
53310;DHT22;39197;53.200;5.792;2022-11-25T04:55:29;7.80;99.90
53310;DHT22;39197;53.200;5.792;2022-11-25T04:57:55;7.80;99.90
53310;DHT22;39197;53.200;5.792;2022-11-25T05:00:21;7.80;99.90
53310;DHT22;39197;53.200;5.792;2022-11-25T05:02:46;7.80;99.90
53310;DHT22;39197;53.200;5.792;2022-11-25T05:05:12;7.80;99.90
53310;DHT22;39197;53.200;5.792;2022-11-25T05:07:37;7.80;99.90
53310;DHT22;39197;53.200;5.792;2022-11-25T05:10:04;7.80;99.90
53310;DHT22;39197;53.200;5.792;2022-11-25T05:12:30;7.80;99.90
53310;DHT22;39197;53.200;5.792;2022-11-25T05:14:56;8.00;99.90
53310;DHT22;39197;53.200;5.792;2022-11-25T05:17:24;7.90;99.90
53310;DHT22;39197;53.200;5.792;2022-11-25T05:19:50;7.90;99.90
53310;DHT22;39197;53.200;5.792;2022-11-25T05:22:19;7.80;99.90
53310;DHT22;39197;53.200;5.792;2022-11-25T05:24:45;7.80;99.90
53310;DHT22;39197;53.200;5.792;2022-11-25T05:27:10;7.80;99.90
53310;DHT22;39197;53.200;5.792;2022-11-25T05:29:36;7.80;99.90
53310;DHT22;39197;53.200;5.792;2022-11-25T05:32:03;7.80;99.90
53310;DHT22;39197;53.200;5.792;2022-11-25T05:34:29;7.90;99.90
53310;DHT22;39197;53.200;5.792;2022-11-25T05:36:55;7.90;99.90
53310;DHT22;39197;53.200;5.792;2022-11-25T05:39:20;7.90;99.90
53310;DHT22;39197;53.200;5.792;2022-11-25T05:41:46;7.90;99.90
53310;DHT22;39197;53.200;5.792;2022-11-25T05:44:12;7.90;99.90
53310;DHT22;39197;53.200;5.792;2022-11-25T05:46:38;7.90;99.90
53310;DHT22;39197;53.200;5.792;2022-11-25T05:49:03;7.90;99.90
53310;DHT22;39197;53.200;5.792;2022-11-25T05:51:29;7.90;99.90
53310;DHT22;39197;53.200;5.792;2022-11-25T05:53:55;8.00;99.90
53310;DHT22;39197;53.200;5.792;2022-11-25T05:56:21;7.90;99.90
53310;DHT22;39197;53.200;5.792;2022-11-25T05:58:46;8.00;99.90
53310;DHT22;39197;53.200;5.792;2022-11-25T06:01:14;8.00;99.90
53310;DHT22;39197;53.200;5.792;2022-11-25T06:03:40;8.00;99.90
53310;DHT22;39197;53.200;5.792;2022-11-25T06:06:07;8.00;99.90
53310;DHT22;39197;53.200;5.792;2022-11-25T06:08:33;8.10;99.90
53310;DHT22;39197;53.200;5.792;2022-11-25T06:11:06;8.10;99.90
53310;DHT22;39197;53.200;5.792;2022-11-25T06:13:32;8.10;99.90
53310;DHT22;39197;53.200;5.792;2022-11-25T06:15:58;8.20;99.90
53310;DHT22;39197;53.200;5.792;2022-11-25T06:18:24;8.20;99.90
53310;DHT22;39197;53.200;5.792;2022-11-25T06:20:57;8.20;99.90
53310;DHT22;39197;53.200;5.792;2022-11-25T06:23:23;8.30;99.90
53310;DHT22;39197;53.200;5.792;2022-11-25T06:25:49;8.30;99.90
53310;DHT22;39197;53.200;5.792;2022-11-25T06:28:15;8.30;99.90
53310;DHT22;39197;53.200;5.792;2022-11-25T06:30:40;8.30;99.90
53310;DHT22;39197;53.200;5.792;2022-11-25T06:33:06;8.30;99.90
53310;DHT22;39197;53.200;5.792;2022-11-25T06:35:32;8.30;99.90
53310;DHT22;39197;53.200;5.792;2022-11-25T06:37:58;8.30;99.90
53310;DHT22;39197;53.200;5.792;2022-11-25T06:40:24;8.10;99.90
53310;DHT22;39197;53.200;5.792;2022-11-25T06:42:49;8.10;99.90
53310;DHT22;39197;53.200;5.792;2022-11-25T06:45:15;8.10;99.90
53310;DHT22;39197;53.200;5.792;2022-11-25T06:47:40;8.10;99.90
53310;DHT22;39197;53.200;5.792;2022-11-25T06:50:06;8.10;99.90
53310;DHT22;39197;53.200;5.792;2022-11-25T06:52:32;8.00;99.90
53310;DHT22;39197;53.200;5.792;2022-11-25T06:54:58;8.10;99.90
53310;DHT22;39197;53.200;5.792;2022-11-25T06:57:23;8.00;99.90
53310;DHT22;39197;53.200;5.792;2022-11-25T06:59:49;8.00;99.90
53310;DHT22;39197;53.200;5.792;2022-11-25T07:02:15;7.90;99.90
53310;DHT22;39197;53.200;5.792;2022-11-25T07:04:41;7.90;99.90
53310;DHT22;39197;53.200;5.792;2022-11-25T07:07:07;7.80;99.90
53310;DHT22;39197;53.200;5.792;2022-11-25T07:09:33;7.80;99.90
53310;DHT22;39197;53.200;5.792;2022-11-25T07:11:59;7.80;99.90
53310;DHT22;39197;53.200;5.792;2022-11-25T07:14:24;7.80;99.90
53310;DHT22;39197;53.200;5.792;2022-11-25T07:16:50;7.80;99.90
53310;DHT22;39197;53.200;5.792;2022-11-25T07:19:17;7.80;99.90
53310;DHT22;39197;53.200;5.792;2022-11-25T07:21:44;7.70;99.90
53310;DHT22;39197;53.200;5.792;2022-11-25T07:24:13;7.70;99.90
53310;DHT22;39197;53.200;5.792;2022-11-25T07:26:40;7.70;99.90
53310;DHT22;39197;53.200;5.792;2022-11-25T07:29:08;7.60;99.90
53310;DHT22;39197;53.200;5.792;2022-11-25T07:31:39;7.60;99.90
53310;DHT22;39197;53.200;5.792;2022-11-25T07:34:14;7.60;99.90
53310;DHT22;39197;53.200;5.792;2022-11-25T07:36:42;7.60;99.90
53310;DHT22;39197;53.200;5.792;2022-11-25T07:39:11;7.60;99.90
53310;DHT22;39197;53.200;5.792;2022-11-25T07:41:37;7.60;99.90
53310;DHT22;39197;53.200;5.792;2022-11-25T07:44:05;7.50;99.90
53310;DHT22;39197;53.200;5.792;2022-11-25T07:46:41;7.50;99.90
53310;DHT22;39197;53.200;5.792;2022-11-25T07:49:14;7.50;99.90
53310;DHT22;39197;53.200;5.792;2022-11-25T07:51:42;7.50;99.90
53310;DHT22;39197;53.200;5.792;2022-11-25T07:54:09;7.50;99.90
53310;DHT22;39197;53.200;5.792;2022-11-25T07:56:36;7.50;99.90
53310;DHT22;39197;53.200;5.792;2022-11-25T07:59:03;7.50;99.90
53310;DHT22;39197;53.200;5.792;2022-11-25T08:01:29;7.50;99.90
53310;DHT22;39197;53.200;5.792;2022-11-25T08:03:55;7.60;99.90
53310;DHT22;39197;53.200;5.792;2022-11-25T08:06:24;7.60;99.90
53310;DHT22;39197;53.200;5.792;2022-11-25T08:08:50;7.60;99.90
53310;DHT22;39197;53.200;5.792;2022-11-25T08:11:28;7.70;99.90
53310;DHT22;39197;53.200;5.792;2022-11-25T08:13:54;7.70;99.90
53310;DHT22;39197;53.200;5.792;2022-11-25T08:16:22;7.70;99.90
53310;DHT22;39197;53.200;5.792;2022-11-25T08:18:48;7.70;99.90
53310;DHT22;39197;53.200;5.792;2022-11-25T08:21:17;7.70;99.90
53310;DHT22;39197;53.200;5.792;2022-11-25T08:23:44;7.80;99.90
53310;DHT22;39197;53.200;5.792;2022-11-25T08:26:33;7.90;99.90
53310;DHT22;39197;53.200;5.792;2022-11-25T08:29:02;7.80;99.90
53310;DHT22;39197;53.200;5.792;2022-11-25T08:31:36;7.90;99.90
53310;DHT22;39197;53.200;5.792;2022-11-25T08:34:02;7.90;99.90
53310;DHT22;39197;53.200;5.792;2022-11-25T08:36:29;8.00;99.90
53310;DHT22;39197;53.200;5.792;2022-11-25T08:38:56;8.00;99.90
53310;DHT22;39197;53.200;5.792;2022-11-25T08:41:32;8.10;99.90
53310;DHT22;39197;53.200;5.792;2022-11-25T08:44:00;8.30;99.90
53310;DHT22;39197;53.200;5.792;2022-11-25T08:46:29;8.60;99.90
53310;DHT22;39197;53.200;5.792;2022-11-25T08:48:55;9.00;99.90
53310;DHT22;39197;53.200;5.792;2022-11-25T08:51:24;9.20;99.90
53310;DHT22;39197;53.200;5.792;2022-11-25T08:53:49;9.20;99.90
53310;DHT22;39197;53.200;5.792;2022-11-25T08:56:19;9.00;99.90
53310;DHT22;39197;53.200;5.792;2022-11-25T08:58:47;8.90;99.90
53310;DHT22;39197;53.200;5.792;2022-11-25T09:01:14;8.70;99.90
53310;DHT22;39197;53.200;5.792;2022-11-25T09:03:45;8.70;99.90
53310;DHT22;39197;53.200;5.792;2022-11-25T09:06:11;8.70;99.90
53310;DHT22;39197;53.200;5.792;2022-11-25T09:08:38;8.90;99.90
53310;DHT22;39197;53.200;5.792;2022-11-25T09:11:05;9.20;99.90
53310;DHT22;39197;53.200;5.792;2022-11-25T09:13:31;9.40;99.90
53310;DHT22;39197;53.200;5.792;2022-11-25T09:15:57;9.60;99.90
53310;DHT22;39197;53.200;5.792;2022-11-25T09:18:23;10.00;99.90
53310;DHT22;39197;53.200;5.792;2022-11-25T09:20:52;10.20;99.90
53310;DHT22;39197;53.200;5.792;2022-11-25T09:23:18;10.40;99.90
53310;DHT22;39197;53.200;5.792;2022-11-25T09:26:16;10.60;99.90
53310;DHT22;39197;53.200;5.792;2022-11-25T09:28:43;10.90;99.90
53310;DHT22;39197;53.200;5.792;2022-11-25T09:31:08;11.20;99.90
53310;DHT22;39197;53.200;5.792;2022-11-25T09:33:34;11.40;99.90
53310;DHT22;39197;53.200;5.792;2022-11-25T09:36:01;11.20;99.90
53310;DHT22;39197;53.200;5.792;2022-11-25T09:38:26;11.30;99.90
53310;DHT22;39197;53.200;5.792;2022-11-25T09:44:45;11.40;99.90
53310;DHT22;39197;53.200;5.792;2022-11-25T09:47:38;11.40;99.90
53310;DHT22;39197;53.200;5.792;2022-11-25T09:55:32;10.30;99.90
53310;DHT22;39197;53.200;5.792;2022-11-25T09:58:29;10.30;99.90
53310;DHT22;39197;53.200;5.792;2022-11-25T10:00:57;10.60;99.90
53310;DHT22;39197;53.200;5.792;2022-11-25T10:03:45;10.70;99.90
53310;DHT22;39197;53.200;5.792;2022-11-25T10:06:43;10.60;99.90
53310;DHT22;39197;53.200;5.792;2022-11-25T10:09:12;10.40;99.90
53310;DHT22;39197;53.200;5.792;2022-11-25T10:11:53;9.90;99.90
53310;DHT22;39197;53.200;5.792;2022-11-25T10:14:45;9.90;99.90
53310;DHT22;39197;53.200;5.792;2022-11-25T10:17:39;10.20;99.90
53310;DHT22;39197;53.200;5.792;2022-11-25T10:20:30;10.90;99.90
53310;DHT22;39197;53.200;5.792;2022-11-25T10:25:34;11.90;99.90
53310;DHT22;39197;53.200;5.792;2022-11-25T10:28:22;12.00;99.90
53310;DHT22;39197;53.200;5.792;2022-11-25T10:30:53;12.00;99.90
53310;DHT22;39197;53.200;5.792;2022-11-25T10:36:46;11.30;99.90
53310;DHT22;39197;53.200;5.792;2022-11-25T10:39:18;10.80;99.90
53310;DHT22;39197;53.200;5.792;2022-11-25T10:42:03;10.60;99.90
53310;DHT22;39197;53.200;5.792;2022-11-25T10:44:37;10.40;99.90
53310;DHT22;39197;53.200;5.792;2022-11-25T10:47:11;10.60;99.90
53310;DHT22;39197;53.200;5.792;2022-11-25T10:52:28;10.90;99.90
53310;DHT22;39197;53.200;5.792;2022-11-25T10:54:56;10.80;99.90
53310;DHT22;39197;53.200;5.792;2022-11-25T10:57:27;10.70;99.90
53310;DHT22;39197;53.200;5.792;2022-11-25T10:59:57;10.50;99.90
53310;DHT22;39197;53.200;5.792;2022-11-25T11:05:13;10.70;99.90
53310;DHT22;39197;53.200;5.792;2022-11-25T11:07:45;11.10;99.90
53310;DHT22;39197;53.200;5.792;2022-11-25T11:10:21;11.20;99.90
53310;DHT22;39197;53.200;5.792;2022-11-25T11:13:04;11.10;99.90
53310;DHT22;39197;53.200;5.792;2022-11-25T11:15:31;11.00;99.90
53310;DHT22;39197;53.200;5.792;2022-11-25T11:18:12;10.90;99.90
53310;DHT22;39197;53.200;5.792;2022-11-25T11:20:47;10.90;99.90
53310;DHT22;39197;53.200;5.792;2022-11-25T11:23:15;10.90;99.90
53310;DHT22;39197;53.200;5.792;2022-11-25T11:25:55;10.80;99.90
53310;DHT22;39197;53.200;5.792;2022-11-25T11:28:39;10.70;99.90
53310;DHT22;39197;53.200;5.792;2022-11-25T11:33:47;10.80;99.90
53310;DHT22;39197;53.200;5.792;2022-11-25T11:36:23;10.90;99.90
53310;DHT22;39197;53.200;5.792;2022-11-25T11:53:21;11.80;99.90
53310;DHT22;39197;53.200;5.792;2022-11-25T12:04:01;12.40;99.90
53310;DHT22;39197;53.200;5.792;2022-11-25T12:06:30;12.30;99.90
53310;DHT22;39197;53.200;5.792;2022-11-25T12:09:07;12.10;99.90
53310;DHT22;39197;53.200;5.792;2022-11-25T12:11:41;12.30;99.90
53310;DHT22;39197;53.200;5.792;2022-11-25T12:14:25;12.60;99.90
53310;DHT22;39197;53.200;5.792;2022-11-25T12:16:58;13.20;99.90
53310;DHT22;39197;53.200;5.792;2022-11-25T12:22:06;14.10;99.90
53310;DHT22;39197;53.200;5.792;2022-11-25T12:27:23;14.20;99.90
53310;DHT22;39197;53.200;5.792;2022-11-25T12:35:21;13.40;99.90
53310;DHT22;39197;53.200;5.792;2022-11-25T12:40:43;13.40;99.90
53310;DHT22;39197;53.200;5.792;2022-11-25T12:45:54;13.10;99.90
53310;DHT22;39197;53.200;5.792;2022-11-25T12:48:23;12.80;99.90
53310;DHT22;39197;53.200;5.792;2022-11-25T13:13:11;12.10;99.90
53310;DHT22;39197;53.200;5.792;2022-11-25T13:15:44;12.40;99.90
53310;DHT22;39197;53.200;5.792;2022-11-25T13:18:14;12.40;99.90
53310;DHT22;39197;53.200;5.792;2022-11-25T13:20:47;12.70;99.90
53310;DHT22;39197;53.200;5.792;2022-11-25T13:25:46;13.30;99.90
53310;DHT22;39197;53.200;5.792;2022-11-25T13:28:32;13.20;99.90
53310;DHT22;39197;53.200;5.792;2022-11-25T13:31:20;13.20;99.90
53310;DHT22;39197;53.200;5.792;2022-11-25T13:34:05;13.10;99.90
53310;DHT22;39197;53.200;5.792;2022-11-25T13:36:46;12.90;99.90
53310;DHT22;39197;53.200;5.792;2022-11-25T13:39:17;12.70;99.90
53310;DHT22;39197;53.200;5.792;2022-11-25T13:44:54;12.80;99.90
53310;DHT22;39197;53.200;5.792;2022-11-25T13:47:29;12.80;99.90
53310;DHT22;39197;53.200;5.792;2022-11-25T13:57:47;12.40;99.90
53310;DHT22;39197;53.200;5.792;2022-11-25T14:02:43;12.10;99.90
53310;DHT22;39197;53.200;5.792;2022-11-25T14:08:20;11.90;99.90
53310;DHT22;39197;53.200;5.792;2022-11-25T14:22:41;11.60;99.90
53310;DHT22;39197;53.200;5.792;2022-11-25T14:25:20;11.60;99.90
53310;DHT22;39197;53.200;5.792;2022-11-25T14:27:49;11.60;99.90
53310;DHT22;39197;53.200;5.792;2022-11-25T14:30:16;11.60;99.90
53310;DHT22;39197;53.200;5.792;2022-11-25T14:35:42;11.40;99.90
53310;DHT22;39197;53.200;5.792;2022-11-25T14:38:22;11.30;99.90
53310;DHT22;39197;53.200;5.792;2022-11-25T14:41:10;11.30;99.90
53310;DHT22;39197;53.200;5.792;2022-11-25T14:43:46;11.20;99.90
53310;DHT22;39197;53.200;5.792;2022-11-25T14:46:19;11.10;99.90
53310;DHT22;39197;53.200;5.792;2022-11-25T14:48:51;11.10;99.90
53310;DHT22;39197;53.200;5.792;2022-11-25T14:51:17;11.10;99.90
53310;DHT22;39197;53.200;5.792;2022-11-25T14:53:46;11.00;99.90
53310;DHT22;39197;53.200;5.792;2022-11-25T14:56:13;11.00;99.90
53310;DHT22;39197;53.200;5.792;2022-11-25T14:58:40;11.00;99.90
53310;DHT22;39197;53.200;5.792;2022-11-25T15:01:15;10.90;99.90
53310;DHT22;39197;53.200;5.792;2022-11-25T15:03:41;10.90;99.90
53310;DHT22;39197;53.200;5.792;2022-11-25T15:06:11;10.80;99.90
53310;DHT22;39197;53.200;5.792;2022-11-25T15:08:43;10.80;99.90
53310;DHT22;39197;53.200;5.792;2022-11-25T15:11:30;10.70;99.90
53310;DHT22;39197;53.200;5.792;2022-11-25T15:14:03;10.60;99.90
53310;DHT22;39197;53.200;5.792;2022-11-25T15:16:40;10.60;99.90
53310;DHT22;39197;53.200;5.792;2022-11-25T15:19:17;10.40;99.90
53310;DHT22;39197;53.200;5.792;2022-11-25T15:21:43;10.40;99.90
53310;DHT22;39197;53.200;5.792;2022-11-25T15:24:30;10.30;99.90
53310;DHT22;39197;53.200;5.792;2022-11-25T15:26:58;10.20;99.90
53310;DHT22;39197;53.200;5.792;2022-11-25T15:29:27;10.20;99.90
53310;DHT22;39197;53.200;5.792;2022-11-25T15:31:53;10.20;99.90
53310;DHT22;39197;53.200;5.792;2022-11-25T15:34:21;10.10;99.90
53310;DHT22;39197;53.200;5.792;2022-11-25T15:36:48;10.00;99.90
53310;DHT22;39197;53.200;5.792;2022-11-25T15:41:49;9.90;99.90
53310;DHT22;39197;53.200;5.792;2022-11-25T15:47:01;9.80;99.90
53310;DHT22;39197;53.200;5.792;2022-11-25T15:49:29;9.70;99.90
53310;DHT22;39197;53.200;5.792;2022-11-25T15:52:02;9.70;99.90
53310;DHT22;39197;53.200;5.792;2022-11-25T15:54:37;9.60;99.90
53310;DHT22;39197;53.200;5.792;2022-11-25T15:57:22;9.50;99.90
53310;DHT22;39197;53.200;5.792;2022-11-25T16:12:41;9.30;99.90
53310;DHT22;39197;53.200;5.792;2022-11-25T16:15:16;9.20;99.90
53310;DHT22;39197;53.200;5.792;2022-11-25T16:17:42;9.20;99.90
53310;DHT22;39197;53.200;5.792;2022-11-25T16:20:19;9.10;99.90
53310;DHT22;39197;53.200;5.792;2022-11-25T16:22:45;9.10;99.90
53310;DHT22;39197;53.200;5.792;2022-11-25T16:25:14;9.00;99.90
53310;DHT22;39197;53.200;5.792;2022-11-25T16:27:40;9.00;99.90
53310;DHT22;39197;53.200;5.792;2022-11-25T16:30:18;8.90;99.90
53310;DHT22;39197;53.200;5.792;2022-11-25T16:32:43;8.90;99.90
53310;DHT22;39197;53.200;5.792;2022-11-25T16:35:14;8.90;99.90
53310;DHT22;39197;53.200;5.792;2022-11-25T16:37:40;8.90;99.90
53310;DHT22;39197;53.200;5.792;2022-11-25T16:40:10;8.80;99.90
53310;DHT22;39197;53.200;5.792;2022-11-25T16:42:37;8.80;99.90
53310;DHT22;39197;53.200;5.792;2022-11-25T16:45:11;8.80;99.90
53310;DHT22;39197;53.200;5.792;2022-11-25T16:47:40;8.80;99.90
53310;DHT22;39197;53.200;5.792;2022-11-25T16:50:13;8.70;99.90
53310;DHT22;39197;53.200;5.792;2022-11-25T16:52:39;8.70;99.90
53310;DHT22;39197;53.200;5.792;2022-11-25T16:55:04;8.70;99.90
53310;DHT22;39197;53.200;5.792;2022-11-25T16:57:33;8.60;99.90
53310;DHT22;39197;53.200;5.792;2022-11-25T17:00:01;8.60;99.90
53310;DHT22;39197;53.200;5.792;2022-11-25T17:02:31;8.50;99.90
53310;DHT22;39197;53.200;5.792;2022-11-25T17:04:58;8.50;99.90
53310;DHT22;39197;53.200;5.792;2022-11-25T17:07:31;8.40;99.90
53310;DHT22;39197;53.200;5.792;2022-11-25T17:09:56;8.40;99.90
53310;DHT22;39197;53.200;5.792;2022-11-25T17:12:30;8.40;99.90
53310;DHT22;39197;53.200;5.792;2022-11-25T17:14:57;8.30;99.90
53310;DHT22;39197;53.200;5.792;2022-11-25T17:17:24;8.30;99.90
53310;DHT22;39197;53.200;5.792;2022-11-25T17:19:50;8.30;99.90
53310;DHT22;39197;53.200;5.792;2022-11-25T17:22:19;8.30;99.90
53310;DHT22;39197;53.200;5.792;2022-11-25T17:24:45;8.40;99.90
53310;DHT22;39197;53.200;5.792;2022-11-25T17:27:29;8.30;99.90
53310;DHT22;39197;53.200;5.792;2022-11-25T17:29:56;8.40;99.90
53310;DHT22;39197;53.200;5.792;2022-11-25T17:32:23;8.40;99.90
53310;DHT22;39197;53.200;5.792;2022-11-25T17:34:49;8.30;99.90
53310;DHT22;39197;53.200;5.792;2022-11-25T17:37:17;8.30;99.90
53310;DHT22;39197;53.200;5.792;2022-11-25T17:39:43;8.60;99.90
53310;DHT22;39197;53.200;5.792;2022-11-25T17:42:16;8.30;99.90
53310;DHT22;39197;53.200;5.792;2022-11-25T17:44:43;8.20;99.90
53310;DHT22;39197;53.200;5.792;2022-11-25T17:47:14;8.20;99.90
53310;DHT22;39197;53.200;5.792;2022-11-25T17:49:41;8.20;99.90
53310;DHT22;39197;53.200;5.792;2022-11-25T17:52:07;8.10;99.90
53310;DHT22;39197;53.200;5.792;2022-11-25T17:54:33;8.10;99.90
53310;DHT22;39197;53.200;5.792;2022-11-25T17:56:59;8.00;99.90
53310;DHT22;39197;53.200;5.792;2022-11-25T17:59:29;8.00;99.90
53310;DHT22;39197;53.200;5.792;2022-11-25T18:01:56;8.00;99.90
53310;DHT22;39197;53.200;5.792;2022-11-25T18:04:29;8.00;99.90
53310;DHT22;39197;53.200;5.792;2022-11-25T18:06:55;7.90;99.90
53310;DHT22;39197;53.200;5.792;2022-11-25T18:09:21;7.90;99.90
53310;DHT22;39197;53.200;5.792;2022-11-25T18:11:49;7.90;99.90
53310;DHT22;39197;53.200;5.792;2022-11-25T18:14:28;7.80;99.90